Time;durP1;ratioP1;P1;durP2;ratioP2;P2;SDS_P1;SDS_P2;PMS_P1;PMS_P2;Temp;Humidity;BMP_temperature;BMP_pressure;BME280_temperature;BME280_humidity;BME280_pressure;Samples;Min_cycle;Max_cycle;Signal;HPM_P1;HPM_P2
2022/07/21 00:00:55;;;;;;;;;4.00;4.00;;;;;-146.44;100.00;58906.56;5076595;27;45376;-65
2022/07/21 00:03:21;;;;;;;;;3.00;3.00;;;;;-146.44;100.00;58906.56;5076521;27;45610;-65
2022/07/21 00:05:46;;;;;;;;;3.00;3.00;;;;;-146.44;100.00;58906.56;5076195;27;46187;-65
2022/07/21 00:08:13;;;;;;;;;3.75;3.75;;;;;-146.44;100.00;58906.56;5076338;27;45506;-65
2022/07/21 00:10:39;;;;;;;;;2.50;2.50;;;;;-146.44;100.00;58906.56;5076517;27;45383;-65
2022/07/21 00:13:04;;;;;;;;;3.50;3.50;;;;;-146.44;100.00;58906.56;5076561;27;45374;-65
2022/07/21 00:15:30;;;;;;;;;3.00;3.00;;;;;-146.44;100.00;58906.56;5076104;27;46712;-65
2022/07/21 00:17:56;;;;;;;;;4.50;3.25;;;;;-146.44;100.00;58906.56;5075124;27;45421;-65
2022/07/21 00:20:21;;;;;;;;;4.25;4.25;;;;;-146.44;100.00;58906.56;5076095;27;45367;-65
2022/07/21 00:22:47;;;;;;;;;4.00;4.00;;;;;-146.44;100.00;58906.56;5076213;28;45500;-65
2022/07/21 00:25:14;;;;;;;;;3.00;3.00;;;;;-146.44;100.00;58906.56;5075823;27;45442;-65
2022/07/21 00:27:39;;;;;;;;;3.25;3.25;;;;;-146.44;100.00;58906.56;5074810;27;45402;-65
2022/07/21 00:30:07;;;;;;;;;3.75;3.75;;;;;-146.44;100.00;58906.56;5076464;27;45587;-66
2022/07/21 00:32:33;;;;;;;;;3.00;3.00;;;;;-146.44;100.00;58906.56;5076122;27;45638;-66
2022/07/21 00:34:58;;;;;;;;;4.00;4.00;;;;;-146.44;100.00;58906.56;5075880;27;45837;-65
2022/07/21 00:37:24;;;;;;;;;5.00;5.00;;;;;-146.44;100.00;58906.56;5075900;27;45485;-66
2022/07/21 00:39:51;;;;;;;;;5.50;4.75;;;;;-146.44;100.00;58906.56;5076150;27;45398;-66
2022/07/21 00:42:24;;;;;;;;;3.00;3.00;;;;;-146.44;100.00;58906.56;5076017;28;45596;-66
2022/07/21 00:44:50;;;;;;;;;2.25;2.25;;;;;-146.44;100.00;58906.56;5075957;27;45486;-66
2022/07/21 00:47:19;;;;;;;;;4.00;3.50;;;;;-146.44;100.00;58906.56;5075622;27;45541;-66
2022/07/21 00:49:44;;;;;;;;;4.00;4.00;;;;;-146.44;100.00;58906.56;5075799;27;45396;-66
2022/07/21 00:52:10;;;;;;;;;3.00;3.00;;;;;-146.44;100.00;58906.56;5075810;27;45474;-66
2022/07/21 00:54:35;;;;;;;;;4.00;4.00;;;;;-146.44;100.00;58906.56;5075644;27;46382;-66
2022/07/21 00:57:01;;;;;;;;;3.00;3.00;;;;;-146.44;100.00;58906.56;5075426;28;45384;-66
2022/07/21 00:59:29;;;;;;;;;3.00;3.00;;;;;-146.44;100.00;58906.56;5075827;27;45557;-66
2022/07/21 01:01:54;;;;;;;;;4.00;4.00;;;;;-146.44;100.00;58906.56;5075844;27;45500;-66
2022/07/21 01:04:26;;;;;;;;;3.00;3.00;;;;;-146.44;100.00;58906.56;5075362;27;46230;-66
2022/07/21 01:06:53;;;;;;;;;4.00;4.00;;;;;-146.44;100.00;58906.56;5075633;27;45435;-66
2022/07/21 01:09:19;;;;;;;;;3.50;3.50;;;;;-146.44;100.00;58906.56;5075839;27;45501;-66
2022/07/21 01:11:46;;;;;;;;;4.00;4.00;;;;;-146.44;100.00;58906.56;5075522;27;45559;-66
2022/07/21 01:14:12;;;;;;;;;4.00;4.00;;;;;-146.44;100.00;58906.56;5075277;27;46060;-67
2022/07/21 01:16:37;;;;;;;;;4.75;4.75;;;;;-146.44;100.00;58906.56;5075301;27;45424;-66
2022/07/21 01:19:05;;;;;;;;;4.75;4.75;;;;;-146.44;100.00;58906.56;5075599;27;45383;-65
2022/07/21 01:21:35;;;;;;;;;4.25;4.25;;;;;-146.44;100.00;58906.56;5075714;28;45447;-65
2022/07/21 01:24:03;;;;;;;;;4.75;4.50;;;;;-146.44;100.00;58906.56;5075458;27;45514;-65
2022/07/21 01:26:29;;;;;;;;;5.25;4.25;;;;;-146.44;100.00;58906.56;5075352;28;45458;-65
2022/07/21 01:28:55;;;;;;;;;5.00;5.00;;;;;-146.44;100.00;58906.56;5075679;27;45446;-65
2022/07/21 01:31:21;;;;;;;;;5.00;5.00;;;;;-146.44;100.00;58906.56;5073961;27;45356;-65
2022/07/21 01:33:46;;;;;;;;;5.00;5.00;;;;;-146.44;100.00;58906.56;5075363;28;45395;-65
2022/07/21 01:36:12;;;;;;;;;5.00;5.00;;;;;-146.44;100.00;58906.56;5074983;28;45421;-65
2022/07/21 01:41:32;;;;;;;;;3.00;3.00;;;;;-146.44;100.00;58906.56;5078787;28;45383;-65
2022/07/21 01:44:00;;;;;;;;;4.00;3.25;;;;;-146.44;100.00;58906.56;5078740;27;45527;-65
2022/07/21 01:46:26;;;;;;;;;4.25;3.75;;;;;-146.44;100.00;58906.56;5078794;27;45353;-65
2022/07/21 01:48:52;;;;;;;;;4.25;3.75;;;;;-146.44;100.00;58906.56;5078855;27;45410;-66
2022/07/21 01:51:17;;;;;;;;;5.00;5.00;;;;;-146.44;100.00;58906.56;5078824;27;45530;-65
2022/07/21 01:53:43;;;;;;;;;4.25;4.25;;;;;-146.44;100.00;58906.56;5078511;27;46085;-65
2022/07/21 01:56:08;;;;;;;;;3.50;3.50;;;;;-146.44;100.00;58906.56;5077067;28;45393;-66
2022/07/21 01:58:34;;;;;;;;;5.00;3.75;;;;;-146.44;100.00;58906.56;5078641;27;45312;-65
2022/07/21 02:01:00;;;;;;;;;8.00;6.25;;;;;-146.44;100.00;58906.56;5077297;28;45336;-65
2022/07/21 02:03:26;;;;;;;;;5.50;4.75;;;;;-146.44;100.00;58906.56;5078291;27;46122;-65
2022/07/21 02:05:52;;;;;;;;;4.00;4.00;;;;;-146.44;100.00;58906.56;5078522;27;45331;-65
2022/07/21 02:08:17;;;;;;;;;6.00;6.00;;;;;-146.44;100.00;58906.56;5078714;27;45440;-65
2022/07/21 02:10:42;;;;;;;;;6.00;5.00;;;;;-146.44;100.00;58906.56;5078400;27;45480;-65
2022/07/21 02:13:08;;;;;;;;;5.00;4.25;;;;;-146.44;100.00;58906.56;5078418;27;45441;-65
2022/07/21 02:15:33;;;;;;;;;4.75;4.75;;;;;-146.44;100.00;58906.56;5078213;27;45430;-66
2022/07/21 02:17:59;;;;;;;;;6.25;6.25;;;;;-146.44;100.00;58906.56;5078295;27;45447;-66
2022/07/21 02:20:25;;;;;;;;;7.00;7.00;;;;;-146.44;100.00;58906.56;5078417;27;45450;-65
2022/07/21 02:22:51;;;;;;;;;5.50;5.50;;;;;-146.44;100.00;58906.56;5078157;27;45580;-65
2022/07/21 02:25:16;;;;;;;;;7.50;7.50;;;;;-146.44;100.00;58906.56;5078063;27;45413;-65
2022/07/21 02:27:43;;;;;;;;;6.75;6.00;;;;;-146.44;100.00;58906.56;5078285;27;45517;-65
2022/07/21 02:30:10;;;;;;;;;7.00;7.00;;;;;-146.44;100.00;58906.56;5078307;27;45662;-65
2022/07/21 02:32:35;;;;;;;;;8.75;7.75;;;;;-146.44;100.00;58906.56;5077765;27;45532;-65
2022/07/21 02:35:04;;;;;;;;;8.00;8.00;;;;;-146.44;100.00;58906.56;5077886;27;45481;-65
2022/07/21 02:37:29;;;;;;;;;5.50;5.50;;;;;-146.44;100.00;58906.56;5077953;27;45520;-66
2022/07/21 02:39:54;;;;;;;;;6.75;6.75;;;;;-146.44;100.00;58906.56;5078018;27;45398;-66
2022/07/21 02:42:20;;;;;;;;;6.75;6.75;;;;;-146.44;100.00;58906.56;5077852;27;46690;-65
2022/07/21 02:44:45;;;;;;;;;7.75;7.75;;;;;-146.44;100.00;58906.56;5077681;27;45497;-65
2022/07/21 02:47:11;;;;;;;;;7.00;7.00;;;;;-146.44;100.00;58906.56;5077911;27;45485;-65
2022/07/21 02:49:37;;;;;;;;;8.00;8.00;;;;;-146.44;100.00;58906.56;5077816;27;45634;-66
2022/07/21 02:52:02;;;;;;;;;10.50;9.50;;;;;-146.44;100.00;58906.56;5077588;27;45375;-65
2022/07/21 02:54:28;;;;;;;;;10.00;9.00;;;;;-146.44;100.00;58906.56;5077674;27;45388;-66
2022/07/21 02:56:53;;;;;;;;;10.00;9.25;;;;;-146.44;100.00;58906.56;5077810;27;45426;-65
2022/07/21 02:59:18;;;;;;;;;8.50;8.50;;;;;-146.44;100.00;58906.56;5077689;27;45351;-65
2022/07/21 03:01:44;;;;;;;;;11.00;9.25;;;;;-146.44;100.00;58906.56;5077683;27;45440;-65
2022/07/21 03:04:09;;;;;;;;;9.25;9.25;;;;;-146.44;100.00;58906.56;5077437;27;45397;-68
2022/07/21 03:06:34;;;;;;;;;9.25;9.25;;;;;-146.44;100.00;58906.56;5077606;27;45302;-65
2022/07/21 03:09:00;;;;;;;;;10.00;10.00;;;;;-146.44;100.00;58906.56;5077684;27;45639;-65
2022/07/21 03:11:25;;;;;;;;;9.75;9.75;;;;;-146.44;100.00;58906.56;5077310;27;45323;-65
2022/07/21 03:13:51;;;;;;;;;10.00;10.00;;;;;-146.44;100.00;58906.56;5077383;27;45464;-65
2022/07/21 03:16:16;;;;;;;;;10.25;8.75;;;;;-146.44;100.00;58906.56;5077361;27;45430;-65
2022/07/21 03:18:41;;;;;;;;;9.75;9.00;;;;;-146.44;100.00;58906.56;5077307;27;45647;-65
2022/07/21 03:21:08;;;;;;;;;9.00;9.00;;;;;-146.44;100.00;58906.56;5077072;27;52334;-65
2022/07/21 03:23:33;;;;;;;;;10.00;10.00;;;;;-146.44;100.00;58906.56;5077114;27;45460;-65
2022/07/21 03:25:58;;;;;;;;;10.00;10.00;;;;;-146.44;100.00;58906.56;5077191;27;45416;-65
2022/07/21 03:28:24;;;;;;;;;13.00;12.00;;;;;-146.44;100.00;58906.56;5077369;27;45441;-65
2022/07/21 03:30:50;;;;;;;;;8.25;8.25;;;;;-146.44;100.00;58906.56;5077104;27;45544;-65
2022/07/21 03:33:15;;;;;;;;;9.00;9.00;;;;;-146.44;100.00;58906.56;5092919;27;45600;-65
2022/07/21 03:35:41;;;;;;;;;10.75;10.75;;;;;-146.44;100.00;58906.56;5077194;27;45378;-65
2022/07/21 03:38:07;;;;;;;;;11.00;11.00;;;;;-146.44;100.00;58906.56;5077114;27;45485;-65
2022/07/21 03:40:35;;;;;;;;;9.00;9.00;;;;;-146.44;100.00;58906.56;5076835;28;45479;-65
2022/07/21 03:43:04;;;;;;;;;9.50;9.50;;;;;-146.44;100.00;58906.56;5076909;28;45387;-65
2022/07/21 03:45:31;;;;;;;;;11.50;11.50;;;;;-146.44;100.00;58906.56;5076937;27;45439;-65
2022/07/21 03:47:57;;;;;;;;;12.00;10.50;;;;;-146.44;100.00;58906.56;5076563;27;45448;-65
2022/07/21 03:50:23;;;;;;;;;10.75;10.75;;;;;-146.44;100.00;58906.56;5075446;28;47402;-65
2022/07/21 03:52:49;;;;;;;;;10.75;9.25;;;;;-146.44;100.00;58906.56;5076565;27;45319;-65
2022/07/21 03:55:17;;;;;;;;;13.00;13.00;;;;;-146.44;100.00;58906.56;5076827;27;45599;-65
2022/07/21 03:57:46;;;;;;;;;13.00;13.00;;;;;-146.44;100.00;58906.56;5075521;28;45604;-65
2022/07/21 04:00:15;;;;;;;;;16.00;16.00;;;;;-146.44;100.00;58906.56;5075862;27;45544;-66
2022/07/21 04:02:42;;;;;;;;;20.00;15.67;;;;;-146.44;100.00;58906.56;5076464;27;45401;-65
2022/07/21 04:05:10;;;;;;;;;16.00;16.00;;;;;-146.44;100.00;58906.56;5076637;27;45341;-65
2022/07/21 04:07:35;;;;;;;;;17.00;17.00;;;;;-146.44;100.00;58906.56;5076640;27;45523;-65
2022/07/21 04:10:01;;;;;;;;;16.00;16.00;;;;;-146.44;100.00;58906.56;5076232;28;45362;-65
2022/07/21 04:12:27;;;;;;;;;16.00;16.00;;;;;-146.44;100.00;58906.56;5076393;27;45489;-65
2022/07/21 04:14:54;;;;;;;;;20.33;20.33;;;;;-146.44;100.00;58906.56;5076357;27;45458;-65
2022/07/21 04:17:19;;;;;;;;;16.33;16.33;;;;;-146.44;100.00;58906.56;5076109;27;45457;-66
2022/07/21 04:19:45;;;;;;;;;17.00;17.00;;;;;-146.44;100.00;58906.56;5076140;27;45411;-65
2022/07/21 04:22:10;;;;;;;;;21.00;19.33;;;;;-146.44;100.00;58906.56;5076289;27;45398;-65
2022/07/21 04:24:35;;;;;;;;;18.67;18.67;;;;;-146.44;100.00;58906.56;5076236;27;45397;-65
2022/07/21 04:27:01;;;;;;;;;17.67;17.67;;;;;-146.44;100.00;58906.56;5092056;27;45447;-65
2022/07/21 04:29:28;;;;;;;;;18.67;18.67;;;;;-146.44;100.00;58906.56;5076003;27;46170;-64
2022/07/21 04:31:54;;;;;;;;;23.33;22.67;;;;;-146.44;100.00;58906.56;5076164;27;45424;-67
2022/07/21 04:34:19;;;;;;;;;25.00;24.33;;;;;-146.44;100.00;58906.56;5076209;27;45515;-64
2022/07/21 04:36:44;;;;;;;;;17.67;17.33;;;;;-146.44;100.00;58906.56;5076075;27;45686;-66
2022/07/21 04:39:10;;;;;;;;;17.00;17.00;;;;;-146.44;100.00;58906.56;5076126;27;46032;-64
2022/07/21 04:41:35;;;;;;;;;22.33;21.67;;;;;-146.44;100.00;58906.56;5075979;27;45429;-64
2022/07/21 04:44:00;;;;;;;;;21.00;19.33;;;;;-146.44;100.00;58906.56;5076017;27;45523;-64
2022/07/21 04:46:26;;;;;;;;;23.00;23.00;;;;;-146.44;100.00;58906.56;5076095;27;45531;-65
2022/07/21 04:48:51;;;;;;;;;19.33;19.33;;;;;-146.44;100.00;58906.56;5075921;28;45546;-65
2022/07/21 04:51:17;;;;;;;;;19.00;19.00;;;;;-146.44;100.00;58906.56;5075739;27;45486;-64
2022/07/21 04:53:42;;;;;;;;;22.00;20.00;;;;;-146.44;100.00;58906.56;5075981;27;45377;-65
2022/07/21 04:56:07;;;;;;;;;19.67;19.67;;;;;-146.44;100.00;58906.56;5075865;27;45496;-65
2022/07/21 04:58:33;;;;;;;;;24.33;21.00;;;;;-146.44;100.00;58906.56;5075608;27;45419;-65
2022/07/21 05:00:58;;;;;;;;;19.67;18.33;;;;;-146.44;100.00;58906.56;5091581;27;45370;-64
2022/07/21 05:03:23;;;;;;;;;21.00;21.00;;;;;-146.44;100.00;58906.56;5074481;28;45668;-64
2022/07/21 05:05:49;;;;;;;;;22.00;20.67;;;;;-146.44;100.00;58906.56;5075827;27;45595;-64
2022/07/21 05:08:14;;;;;;;;;20.67;19.67;;;;;-146.44;100.00;58906.56;5075548;27;46440;-65
2022/07/21 05:10:39;;;;;;;;;18.67;18.67;;;;;-146.44;100.00;58906.56;5075644;27;45444;-65
2022/07/21 05:13:04;;;;;;;;;19.00;18.00;;;;;-146.44;100.00;58906.56;5077427;28;45503;-64
2022/07/21 05:15:30;;;;;;;;;20.33;20.33;;;;;-146.44;100.00;58906.56;5079067;27;45376;-64
2022/07/21 05:17:55;;;;;;;;;19.00;19.00;;;;;-146.44;100.00;58906.56;5079016;27;46177;-65
2022/07/21 05:20:21;;;;;;;;;24.00;22.33;;;;;-146.44;100.00;58906.56;5079261;28;45352;-64
2022/07/21 05:22:46;;;;;;;;;19.67;19.67;;;;;-146.44;100.00;58906.56;5079301;27;45369;-64
2022/07/21 05:25:11;;;;;;;;;21.67;21.67;;;;;-146.44;100.00;58906.56;5079159;27;45617;-65
2022/07/21 05:27:37;;;;;;;;;22.33;22.33;;;;;-146.44;100.00;58906.56;5079156;27;45472;-65
2022/07/21 05:30:04;;;;;;;;;21.67;21.67;;;;;-146.44;100.00;58906.56;5078681;27;45454;-65
2022/07/21 05:32:29;;;;;;;;;22.33;22.33;;;;;-146.44;100.00;58906.56;5078778;27;45468;-64
2022/07/21 05:34:55;;;;;;;;;22.00;20.00;;;;;-146.44;100.00;58906.56;5077551;28;45675;-65
2022/07/21 05:37:20;;;;;;;;;21.33;20.33;;;;;-146.44;100.00;58906.56;5078631;27;45416;-65
2022/07/21 05:39:46;;;;;;;;;23.67;23.00;;;;;-146.44;100.00;58906.56;5078759;27;45453;-64
2022/07/21 05:42:11;;;;;;;;;23.67;22.67;;;;;-146.44;100.00;58906.56;5079105;27;45421;-65
2022/07/21 05:44:36;;;;;;;;;23.33;19.33;;;;;-146.44;100.00;58906.56;5078797;27;45547;-64
2022/07/21 05:47:02;;;;;;;;;22.67;21.33;;;;;-146.44;100.00;58906.56;5078634;27;46339;-65
2022/07/21 05:49:27;;;;;;;;;18.33;18.33;;;;;-146.44;100.00;58906.56;5077899;27;45377;-65
2022/07/21 05:51:52;;;;;;;;;22.67;21.00;;;;;-146.44;100.00;58906.56;5078648;27;45456;-65
2022/07/21 05:54:18;;;;;;;;;23.67;23.33;;;;;-146.44;100.00;58906.56;5078747;27;45334;-64
2022/07/21 05:56:43;;;;;;;;;15.67;14.33;;;;;-146.44;100.00;58906.56;5078462;27;46496;-65
2022/07/21 05:59:08;;;;;;;;;25.00;21.33;;;;;-146.44;100.00;58906.56;5078430;27;45345;-65
2022/07/21 06:01:34;;;;;;;;;24.67;23.67;;;;;-146.44;100.00;58906.56;5078744;27;45363;-65
2022/07/21 06:03:59;;;;;;;;;24.67;24.00;;;;;-146.44;100.00;58906.56;5078520;27;45324;-64
2022/07/21 06:06:24;;;;;;;;;24.00;22.00;;;;;-146.44;100.00;58906.56;5078138;28;46711;-65
2022/07/21 06:08:51;;;;;;;;;23.67;23.33;;;;;-146.44;100.00;58906.56;5078375;28;45493;-64
2022/07/21 06:11:19;;;;;;;;;19.67;19.67;;;;;-146.44;100.00;58906.56;5078276;28;45396;-65
2022/07/21 06:13:45;;;;;;;;;21.00;19.00;;;;;-146.44;100.00;58906.56;5078304;27;45386;-64
2022/07/21 06:16:12;;;;;;;;;21.00;20.00;;;;;-146.44;100.00;58906.56;5077865;27;45538;-64
2022/07/21 06:18:37;;;;;;;;;22.00;22.00;;;;;-146.44;100.00;58906.56;5078184;27;45520;-64
2022/07/21 06:21:04;;;;;;;;;20.33;19.67;;;;;-146.44;100.00;58906.56;5094177;27;45805;-65
2022/07/21 06:23:29;;;;;;;;;23.67;23.67;;;;;-146.44;100.00;58906.56;5077805;27;45500;-64
2022/07/21 06:25:56;;;;;;;;;23.33;23.33;;;;;-146.44;100.00;58906.56;5078003;28;46172;-64
2022/07/21 06:28:22;;;;;;;;;25.00;23.33;;;;;-146.44;100.00;58906.56;5078168;27;45586;-65
2022/07/21 06:30:48;;;;;;;;;23.00;22.00;;;;;-146.44;100.00;58906.56;5077748;27;45400;-65
2022/07/21 06:33:13;;;;;;;;;21.33;18.00;;;;;-146.44;100.00;58906.56;5078060;27;45459;-65
2022/07/21 06:35:39;;;;;;;;;25.00;22.00;;;;;-146.44;100.00;58906.56;5077734;27;46075;-65
2022/07/21 06:38:04;;;;;;;;;21.33;19.67;;;;;-146.44;100.00;58906.56;5077754;27;45435;-65
2022/07/21 06:40:30;;;;;;;;;26.00;24.67;;;;;-146.44;100.00;58906.56;5077952;27;45851;-65
2022/07/21 06:42:55;;;;;;;;;26.00;26.00;;;;;-146.44;100.00;58906.56;5078120;27;45522;-65
2022/07/21 06:45:21;;;;;;;;;24.67;22.33;;;;;-146.44;100.00;58906.56;5077561;27;46056;-65
2022/07/21 06:47:47;;;;;;;;;26.33;21.00;;;;;-146.44;100.00;58906.56;5077628;27;45460;-65
2022/07/21 06:50:12;;;;;;;;;23.33;23.33;;;;;-146.44;100.00;58906.56;5077503;27;45606;-65
2022/07/21 06:52:38;;;;;;;;;24.00;23.33;;;;;-146.44;100.00;58906.56;5077605;27;45505;-64
2022/07/21 06:55:06;;;;;;;;;25.33;22.67;;;;;-146.44;100.00;58906.56;5077490;27;46522;-65
2022/07/21 06:57:34;;;;;;;;;22.33;20.67;;;;;-146.44;100.00;58906.56;5077295;28;45497;-66
2022/07/21 06:59:59;;;;;;;;;23.00;21.00;;;;;-146.44;100.00;58906.56;5077379;27;45488;-66
2022/07/21 07:02:24;;;;;;;;;25.00;23.00;;;;;-146.44;100.00;58906.56;5076202;28;45624;-66
2022/07/21 07:04:50;;;;;;;;;23.33;23.00;;;;;-146.44;100.00;58906.56;5077020;27;45444;-66
2022/07/21 07:07:15;;;;;;;;;21.67;21.67;;;;;-146.44;100.00;58906.56;5077466;27;45428;-66
2022/07/21 07:09:41;;;;;;;;;26.67;25.00;;;;;-146.44;100.00;58906.56;5077604;27;45394;-66
2022/07/21 07:12:08;;;;;;;;;23.67;23.33;;;;;-146.44;100.00;58906.56;5077595;27;45643;-66
2022/07/21 07:14:35;;;;;;;;;23.00;20.33;;;;;-146.44;100.00;58906.56;5093125;27;45438;-66
2022/07/21 07:17:01;;;;;;;;;25.33;24.33;;;;;-146.44;100.00;58906.56;5077150;27;45421;-66
2022/07/21 07:19:27;;;;;;;;;19.67;19.67;;;;;-146.44;100.00;58906.56;5075717;28;45661;-66
2022/07/21 07:21:53;;;;;;;;;21.33;21.33;;;;;-146.44;100.00;58906.56;5077127;27;45552;-66
2022/07/21 07:24:19;;;;;;;;;27.67;24.33;;;;;-146.44;100.00;58906.56;5075705;28;46425;-66
2022/07/21 07:26:45;;;;;;;;;27.00;25.67;;;;;-146.44;100.00;58906.56;5077069;27;45421;-65
2022/07/21 07:29:10;;;;;;;;;25.67;25.00;;;;;-146.44;100.00;58906.56;5077141;27;45489;-66
2022/07/21 07:31:36;;;;;;;;;24.00;23.00;;;;;-146.44;100.00;58906.56;5077152;27;45421;-65
2022/07/21 07:34:02;;;;;;;;;23.33;22.00;;;;;-146.44;100.00;58906.56;5076859;27;45454;-66
2022/07/21 07:36:28;;;;;;;;;23.33;23.33;;;;;-146.44;100.00;58906.56;5075761;27;45387;-66
2022/07/21 07:38:55;;;;;;;;;19.67;19.67;;;;;-146.44;100.00;58906.56;5077032;27;45489;-66
2022/07/21 07:41:22;;;;;;;;;27.33;23.33;;;;;-146.44;100.00;58906.56;5075090;28;45569;-66
2022/07/21 07:43:48;;;;;;;;;24.00;24.00;;;;;-146.44;100.00;58906.56;5076551;27;46136;-66
2022/07/21 07:46:14;;;;;;;;;20.67;18.67;;;;;-146.44;100.00;58906.56;5076705;27;45464;-65
2022/07/21 07:48:41;;;;;;;;;24.33;23.00;;;;;-146.44;100.00;58906.56;5076630;27;45495;-65
2022/07/21 07:51:07;;;;;;;;;25.00;25.00;;;;;-146.44;100.00;58906.56;5076696;27;45553;-66
2022/07/21 07:53:33;;;;;;;;;26.33;22.00;;;;;-146.44;100.00;58906.56;5076516;27;45437;-66
2022/07/21 07:55:59;;;;;;;;;17.00;16.33;;;;;-146.44;100.00;58906.56;5076324;28;45461;-66
2022/07/21 07:58:24;;;;;;;;;24.00;23.00;;;;;-146.44;100.00;58906.56;5076437;27;45496;-65
2022/07/21 08:00:50;;;;;;;;;24.33;21.00;;;;;-146.44;100.00;58906.56;5076571;27;45469;-66
2022/07/21 08:03:15;;;;;;;;;26.67;23.33;;;;;-146.44;100.00;58906.56;5076273;27;46277;-65
2022/07/21 08:05:40;;;;;;;;;23.67;21.67;;;;;-146.44;100.00;58906.56;5076476;27;45412;-65
2022/07/21 08:08:06;;;;;;;;;25.67;20.67;;;;;-146.44;100.00;58906.56;5075207;28;45530;-65
2022/07/21 08:10:31;;;;;;;;;26.00;24.67;;;;;-146.44;100.00;58906.56;5076462;27;45486;-67
2022/07/21 08:12:57;;;;;;;;;23.67;23.33;;;;;-146.44;100.00;58906.56;5074804;28;48446;-65
2022/07/21 08:15:22;;;;;;;;;31.00;30.33;;;;;-146.44;100.00;58906.56;5076101;27;45361;-66
2022/07/21 08:17:48;;;;;;;;;26.67;26.00;;;;;-146.44;100.00;58906.56;5076383;27;45491;-66
2022/07/21 08:20:13;;;;;;;;;27.33;27.33;;;;;-146.44;100.00;58906.56;5076288;27;45668;-66
2022/07/21 08:22:38;;;;;;;;;28.33;25.33;;;;;-146.44;100.00;58906.56;5074563;28;47016;-66
2022/07/21 08:25:04;;;;;;;;;27.33;25.67;;;;;-146.44;100.00;58906.56;5076144;27;45433;-66
2022/07/21 08:27:30;;;;;;;;;26.00;24.33;;;;;-146.44;100.00;58906.56;5076405;27;45458;-66
2022/07/21 08:29:55;;;;;;;;;24.00;24.00;;;;;-146.44;100.00;58906.56;5076103;27;45441;-65
2022/07/21 08:32:20;;;;;;;;;27.33;26.67;;;;;-146.44;100.00;58906.56;5076142;27;46515;-66
2022/07/21 08:34:47;;;;;;;;;25.33;24.00;;;;;-146.44;100.00;58906.56;5076002;27;45520;-66
2022/07/21 08:37:12;;;;;;;;;25.00;22.67;;;;;-146.44;100.00;58906.56;5074559;28;45441;-66
2022/07/21 08:39:38;;;;;;;;;25.33;24.67;;;;;-146.44;100.00;58906.56;5075897;27;45348;-66
2022/07/21 08:42:07;;;;;;;;;23.67;23.67;;;;;-146.44;100.00;58906.56;5075737;27;46056;-66
2022/07/21 08:44:33;;;;;;;;;31.00;28.67;;;;;-146.44;100.00;58906.56;5075676;28;45621;-66
2022/07/21 08:46:59;;;;;;;;;27.33;25.33;;;;;-146.44;100.00;58906.56;5075525;27;45527;-66
2022/07/21 08:49:25;;;;;;;;;30.00;26.00;;;;;-146.44;100.00;58906.56;5075753;27;45466;-65
2022/07/21 08:51:52;;;;;;;;;28.33;27.67;;;;;-146.44;100.00;58906.56;5075593;27;45618;-65
2022/07/21 08:54:20;;;;;;;;;32.67;24.67;;;;;-146.44;100.00;58906.56;5075783;27;45555;-65
2022/07/21 08:56:45;;;;;;;;;26.67;26.67;;;;;-146.44;100.00;58906.56;5075407;27;45431;-66
2022/07/21 08:59:10;;;;;;;;;26.67;25.67;;;;;-146.44;100.00;58906.56;5075621;27;45338;-66
2022/07/21 09:01:37;;;;;;;;;28.67;28.67;;;;;-146.44;100.00;58906.56;5075648;27;46606;-66
2022/07/21 09:04:20;;;;;;;;;29.33;28.00;;;;;-146.44;100.00;58906.56;5075310;28;45689;-65
2022/07/21 09:07:07;;;;;;;;;30.67;29.67;;;;;-146.44;100.00;58906.56;5075605;27;45368;-66
2022/07/21 09:09:34;;;;;;;;;25.67;24.00;;;;;-146.44;100.00;58906.56;5075573;27;45307;-66
2022/07/21 09:12:00;;;;;;;;;27.33;26.00;;;;;-146.44;100.00;58906.56;5075456;27;45481;-65
2022/07/21 09:14:31;;;;;;;;;21.67;21.67;;;;;-146.44;100.00;58906.56;5074806;27;45444;-66
2022/07/21 09:16:58;;;;;;;;;24.00;24.00;;;;;-146.44;100.00;58906.56;5075185;27;45413;-66
2022/07/21 09:19:26;;;;;;;;;29.00;27.00;;;;;-146.44;100.00;58906.56;5073956;27;45576;-66
2022/07/21 09:21:55;;;;;;;;;29.33;28.67;;;;;-146.44;100.00;58906.56;5075041;27;45498;-66
2022/07/21 09:24:28;;;;;;;;;24.00;22.67;;;;;-146.44;100.00;58906.56;5075245;27;45452;-66
2022/07/21 09:27:07;;;;;;;;;23.67;22.67;;;;;-146.44;100.00;58906.56;5075500;27;45368;-66
2022/07/21 09:29:43;;;;;;;;;22.67;19.33;;;;;-146.44;100.00;58906.56;5075388;27;45453;-66
2022/07/21 09:32:25;;;;;;;;;24.00;22.67;;;;;-146.44;100.00;58906.56;5073925;28;45529;-66
2022/07/21 09:34:59;;;;;;;;;28.00;25.33;;;;;-146.44;100.00;58906.56;5075188;27;45494;-66
2022/07/21 09:37:25;;;;;;;;;23.67;23.67;;;;;-146.44;100.00;58906.56;5073989;28;45400;-66
2022/07/21 09:39:51;;;;;;;;;22.33;22.33;;;;;-146.44;100.00;58906.56;5075324;27;45661;-66
2022/07/21 09:42:23;;;;;;;;;27.00;23.67;;;;;-146.44;100.00;58906.56;5075133;28;45488;-65
2022/07/21 09:44:52;;;;;;;;;21.33;21.33;;;;;-146.44;100.00;58906.56;5073822;28;45404;-65
2022/07/21 09:47:20;;;;;;;;;25.00;23.67;;;;;-146.44;100.00;58906.56;5075203;27;45560;-66
2022/07/21 09:49:46;;;;;;;;;23.67;23.67;;;;;-146.44;100.00;58906.56;5074996;27;45541;-66
2022/07/21 09:52:19;;;;;;;;;24.00;23.33;;;;;-146.44;100.00;58906.56;5074915;27;45847;-65
2022/07/21 09:54:44;;;;;;;;;24.00;24.00;;;;;-146.44;100.00;58906.56;5074890;27;45450;-66
2022/07/21 09:57:11;;;;;;;;;24.33;24.33;;;;;-146.44;100.00;58906.56;5074894;27;45409;-66
2022/07/21 09:59:38;;;;;;;;;23.67;22.67;;;;;-146.44;100.00;58906.56;5077429;27;45506;-66
2022/07/21 10:02:04;;;;;;;;;26.00;24.33;;;;;-146.44;100.00;58906.56;5078229;27;46278;-65
2022/07/21 10:04:30;;;;;;;;;24.33;21.33;;;;;-146.44;100.00;58906.56;5078194;28;45495;-65
2022/07/21 10:06:57;;;;;;;;;25.00;24.00;;;;;-146.44;100.00;58906.56;5078400;27;45332;-66
2022/07/21 10:09:23;;;;;;;;;26.67;23.33;;;;;-146.44;100.00;58906.56;5078265;27;45473;-66
2022/07/21 10:11:49;;;;;;;;;28.33;24.67;;;;;-146.44;100.00;58906.56;5077970;27;46322;-66
2022/07/21 10:14:14;;;;;;;;;24.33;24.33;;;;;-146.44;100.00;58906.56;5078189;27;45469;-66
2022/07/21 10:16:40;;;;;;;;;26.00;26.00;;;;;-146.44;100.00;58906.56;5077941;27;45565;-66
2022/07/21 10:19:15;;;;;;;;;26.33;24.67;;;;;-146.44;100.00;58906.56;5078337;27;45669;-65
2022/07/21 10:21:58;;;;;;;;;24.00;23.67;;;;;-146.44;100.00;58906.56;5078060;27;46018;-65
2022/07/21 10:24:27;;;;;;;;;26.00;24.33;;;;;-146.44;100.00;58906.56;5078080;27;45456;-65
2022/07/21 10:27:10;;;;;;;;;23.67;22.33;;;;;-146.44;100.00;58906.56;5078261;27;45412;-65
2022/07/21 10:30:00;;;;;;;;;27.33;25.00;;;;;-146.44;100.00;58906.56;5077580;27;45400;-65
2022/07/21 10:32:37;;;;;;;;;23.00;23.00;;;;;-146.44;100.00;58906.56;5076043;28;47474;-65
2022/07/21 10:35:30;;;;;;;;;18.00;18.00;;;;;-146.44;100.00;58906.56;5077195;27;45544;-65
2022/07/21 10:37:57;;;;;;;;;23.00;22.33;;;;;-146.44;100.00;58906.56;5077156;28;45338;-65
2022/07/21 10:40:22;;;;;;;;;22.00;21.33;;;;;-146.44;100.00;58906.56;5077228;27;45550;-65
2022/07/21 10:43:00;;;;;;;;;22.00;21.00;;;;;-146.44;100.00;58906.56;5077070;28;45418;-65
2022/07/21 10:45:34;;;;;;;;;24.00;24.00;;;;;-146.44;100.00;58906.56;5077038;27;45400;-66
2022/07/21 10:48:01;;;;;;;;;23.00;21.33;;;;;-146.44;100.00;58906.56;5076533;27;45503;-65
2022/07/21 10:50:39;;;;;;;;;20.67;20.67;;;;;-146.44;100.00;58906.56;5076659;27;45543;-65
2022/07/21 10:53:13;;;;;;;;;24.00;24.00;;;;;-146.44;100.00;58906.56;5076638;27;46004;-65
2022/07/21 10:55:46;;;;;;;;;21.00;21.00;;;;;-146.44;100.00;58906.56;5076809;27;45458;-65
2022/07/21 10:58:14;;;;;;;;;23.33;21.00;;;;;-146.44;100.00;58906.56;5076694;27;45479;-68
2022/07/21 11:00:49;;;;;;;;;22.33;22.33;;;;;-146.44;100.00;58906.56;5075369;28;45405;-68